sensor_id;sensor_type;location;lat;lon;timestamp;temperature;humidity
48264;DHT22;34086;51.076;13.722;2022-07-05T00:00:42;19.90;86.50
48264;DHT22;34086;51.076;13.722;2022-07-05T00:01:42;19.80;86.80
48264;DHT22;34086;51.076;13.722;2022-07-05T00:02:43;19.80;87.20
48264;DHT22;34086;51.076;13.722;2022-07-05T00:03:44;19.90;87.30
48264;DHT22;34086;51.076;13.722;2022-07-05T00:04:44;19.90;87.40
48264;DHT22;34086;51.076;13.722;2022-07-05T00:05:45;19.90;88.10
48264;DHT22;34086;51.076;13.722;2022-07-05T00:06:46;19.90;88.90
48264;DHT22;34086;51.076;13.722;2022-07-05T00:08:05;19.80;89.60
48264;DHT22;34086;51.076;13.722;2022-07-05T00:09:06;19.80;90.00
48264;DHT22;34086;51.076;13.722;2022-07-05T00:10:07;19.80;90.00
48264;DHT22;34086;51.076;13.722;2022-07-05T00:11:08;19.80;90.10
48264;DHT22;34086;51.076;13.722;2022-07-05T00:12:09;19.80;90.50
48264;DHT22;34086;51.076;13.722;2022-07-05T00:13:10;19.80;90.70
48264;DHT22;34086;51.076;13.722;2022-07-05T00:14:10;19.80;91.00
48264;DHT22;34086;51.076;13.722;2022-07-05T00:15:11;19.80;91.20
48264;DHT22;34086;51.076;13.722;2022-07-05T00:16:11;19.80;91.30
48264;DHT22;34086;51.076;13.722;2022-07-05T00:17:12;19.70;91.10
48264;DHT22;34086;51.076;13.722;2022-07-05T00:18:13;19.70;90.90
48264;DHT22;34086;51.076;13.722;2022-07-05T00:19:14;19.70;90.90
48264;DHT22;34086;51.076;13.722;2022-07-05T00:20:15;19.80;90.80
48264;DHT22;34086;51.076;13.722;2022-07-05T00:21:16;19.80;90.70
48264;DHT22;34086;51.076;13.722;2022-07-05T00:22:17;19.80;90.80
48264;DHT22;34086;51.076;13.722;2022-07-05T00:23:17;19.70;90.40
48264;DHT22;34086;51.076;13.722;2022-07-05T00:24:18;19.70;88.90
48264;DHT22;34086;51.076;13.722;2022-07-05T00:25:19;19.70;87.50
48264;DHT22;34086;51.076;13.722;2022-07-05T00:26:19;19.70;86.40
48264;DHT22;34086;51.076;13.722;2022-07-05T00:27:20;19.70;86.20
48264;DHT22;34086;51.076;13.722;2022-07-05T00:28:21;19.70;85.80
48264;DHT22;34086;51.076;13.722;2022-07-05T00:29:21;19.70;85.60
48264;DHT22;34086;51.076;13.722;2022-07-05T00:30:22;19.70;85.40
48264;DHT22;34086;51.076;13.722;2022-07-05T00:31:23;19.70;85.60
48264;DHT22;34086;51.076;13.722;2022-07-05T00:32:23;19.70;85.50
48264;DHT22;34086;51.076;13.722;2022-07-05T00:33:24;19.70;85.50
48264;DHT22;34086;51.076;13.722;2022-07-05T00:34:25;19.70;86.00
48264;DHT22;34086;51.076;13.722;2022-07-05T00:35:25;19.70;86.80
48264;DHT22;34086;51.076;13.722;2022-07-05T00:36:26;19.70;87.50
48264;DHT22;34086;51.076;13.722;2022-07-05T00:37:27;19.70;88.10
48264;DHT22;34086;51.076;13.722;2022-07-05T00:38:28;19.70;88.40
48264;DHT22;34086;51.076;13.722;2022-07-05T00:39:29;19.70;88.20
48264;DHT22;34086;51.076;13.722;2022-07-05T00:40:29;19.70;88.20
48264;DHT22;34086;51.076;13.722;2022-07-05T00:41:30;19.70;88.10
48264;DHT22;34086;51.076;13.722;2022-07-05T00:42:31;19.70;87.60
48264;DHT22;34086;51.076;13.722;2022-07-05T00:43:32;19.60;87.40
48264;DHT22;34086;51.076;13.722;2022-07-05T00:44:35;19.60;87.50
48264;DHT22;34086;51.076;13.722;2022-07-05T00:45:36;19.70;88.20
48264;DHT22;34086;51.076;13.722;2022-07-05T00:46:38;19.70;89.40
48264;DHT22;34086;51.076;13.722;2022-07-05T00:47:38;19.70;90.30
48264;DHT22;34086;51.076;13.722;2022-07-05T00:48:39;19.70;90.30
48264;DHT22;34086;51.076;13.722;2022-07-05T00:49:41;19.60;89.80
48264;DHT22;34086;51.076;13.722;2022-07-05T00:50:42;19.60;89.70
48264;DHT22;34086;51.076;13.722;2022-07-05T00:51:43;19.60;89.70
48264;DHT22;34086;51.076;13.722;2022-07-05T00:52:44;19.60;89.90
48264;DHT22;34086;51.076;13.722;2022-07-05T00:53:45;19.60;90.00
48264;DHT22;34086;51.076;13.722;2022-07-05T00:54:46;19.50;89.20
48264;DHT22;34086;51.076;13.722;2022-07-05T00:55:47;19.50;88.90
48264;DHT22;34086;51.076;13.722;2022-07-05T00:56:48;19.50;88.70
48264;DHT22;34086;51.076;13.722;2022-07-05T00:57:49;19.50;88.20
48264;DHT22;34086;51.076;13.722;2022-07-05T00:58:51;19.50;87.70
48264;DHT22;34086;51.076;13.722;2022-07-05T00:59:52;19.50;86.90
48264;DHT22;34086;51.076;13.722;2022-07-05T01:00:53;19.40;87.40
48264;DHT22;34086;51.076;13.722;2022-07-05T01:01:54;19.50;87.80
48264;DHT22;34086;51.076;13.722;2022-07-05T01:02:55;19.40;88.60
48264;DHT22;34086;51.076;13.722;2022-07-05T01:03:56;19.40;89.30
48264;DHT22;34086;51.076;13.722;2022-07-05T01:04:58;19.40;89.50
48264;DHT22;34086;51.076;13.722;2022-07-05T01:06:01;19.40;89.80
48264;DHT22;34086;51.076;13.722;2022-07-05T01:07:02;19.40;89.80
48264;DHT22;34086;51.076;13.722;2022-07-05T01:08:04;19.40;90.10
48264;DHT22;34086;51.076;13.722;2022-07-05T01:09:07;19.40;90.30
48264;DHT22;34086;51.076;13.722;2022-07-05T01:10:09;19.40;90.60
48264;DHT22;34086;51.076;13.722;2022-07-05T01:11:11;19.40;90.60
48264;DHT22;34086;51.076;13.722;2022-07-05T01:12:12;19.30;90.70
48264;DHT22;34086;51.076;13.722;2022-07-05T01:13:14;19.30;90.90
48264;DHT22;34086;51.076;13.722;2022-07-05T01:14:19;19.30;91.00
48264;DHT22;34086;51.076;13.722;2022-07-05T01:15:21;19.30;90.60
48264;DHT22;34086;51.076;13.722;2022-07-05T01:16:22;19.30;90.50
48264;DHT22;34086;51.076;13.722;2022-07-05T01:17:23;19.30;90.10
48264;DHT22;34086;51.076;13.722;2022-07-05T01:18:24;19.30;89.40
48264;DHT22;34086;51.076;13.722;2022-07-05T01:19:26;19.30;89.10
48264;DHT22;34086;51.076;13.722;2022-07-05T01:20:27;19.30;89.00
48264;DHT22;34086;51.076;13.722;2022-07-05T01:21:28;19.30;89.30
48264;DHT22;34086;51.076;13.722;2022-07-05T01:22:54;19.30;89.20
48264;DHT22;34086;51.076;13.722;2022-07-05T01:23:53;19.20;89.90
48264;DHT22;34086;51.076;13.722;2022-07-05T01:24:54;19.20;90.40
48264;DHT22;34086;51.076;13.722;2022-07-05T01:25:56;19.20;90.60
48264;DHT22;34086;51.076;13.722;2022-07-05T01:26:57;19.20;90.70
48264;DHT22;34086;51.076;13.722;2022-07-05T01:27:59;19.20;90.50
48264;DHT22;34086;51.076;13.722;2022-07-05T01:29:00;19.20;90.10
48264;DHT22;34086;51.076;13.722;2022-07-05T01:30:01;19.10;90.10
48264;DHT22;34086;51.076;13.722;2022-07-05T01:31:02;19.10;90.20
48264;DHT22;34086;51.076;13.722;2022-07-05T01:32:03;19.10;90.10
48264;DHT22;34086;51.076;13.722;2022-07-05T01:33:05;19.10;90.10
48264;DHT22;34086;51.076;13.722;2022-07-05T01:34:07;19.10;90.20
48264;DHT22;34086;51.076;13.722;2022-07-05T01:35:08;19.10;90.10
48264;DHT22;34086;51.076;13.722;2022-07-05T01:36:11;19.00;90.00
48264;DHT22;34086;51.076;13.722;2022-07-05T01:37:12;19.00;90.00
48264;DHT22;34086;51.076;13.722;2022-07-05T01:38:13;19.10;90.30
48264;DHT22;34086;51.076;13.722;2022-07-05T01:39:14;19.00;90.20
48264;DHT22;34086;51.076;13.722;2022-07-05T01:40:16;19.00;90.30
48264;DHT22;34086;51.076;13.722;2022-07-05T01:41:17;19.00;90.50
48264;DHT22;34086;51.076;13.722;2022-07-05T01:42:18;19.00;90.70
48264;DHT22;34086;51.076;13.722;2022-07-05T01:43:19;19.00;91.10
48264;DHT22;34086;51.076;13.722;2022-07-05T01:44:20;18.90;91.40
48264;DHT22;34086;51.076;13.722;2022-07-05T01:45:21;18.90;91.40
48264;DHT22;34086;51.076;13.722;2022-07-05T01:46:40;18.90;91.70
48264;DHT22;34086;51.076;13.722;2022-07-05T01:47:44;18.90;92.10
48264;DHT22;34086;51.076;13.722;2022-07-05T01:48:46;18.80;92.30
48264;DHT22;34086;51.076;13.722;2022-07-05T01:49:52;18.80;92.50
48264;DHT22;34086;51.076;13.722;2022-07-05T01:51:00;18.70;92.70
48264;DHT22;34086;51.076;13.722;2022-07-05T01:52:10;18.70;92.90
48264;DHT22;34086;51.076;13.722;2022-07-05T01:53:28;18.70;93.00
48264;DHT22;34086;51.076;13.722;2022-07-05T01:54:29;18.70;93.00
48264;DHT22;34086;51.076;13.722;2022-07-05T01:55:29;18.60;93.00
48264;DHT22;34086;51.076;13.722;2022-07-05T01:56:30;18.60;93.10
48264;DHT22;34086;51.076;13.722;2022-07-05T01:57:31;18.60;93.40
48264;DHT22;34086;51.076;13.722;2022-07-05T01:58:32;18.50;93.40
48264;DHT22;34086;51.076;13.722;2022-07-05T01:59:33;18.50;93.60
48264;DHT22;34086;51.076;13.722;2022-07-05T02:00:45;18.50;93.60
48264;DHT22;34086;51.076;13.722;2022-07-05T02:01:46;18.50;93.80
48264;DHT22;34086;51.076;13.722;2022-07-05T02:02:47;18.40;94.00
48264;DHT22;34086;51.076;13.722;2022-07-05T02:03:50;18.50;94.20
48264;DHT22;34086;51.076;13.722;2022-07-05T02:04:50;18.40;94.40
48264;DHT22;34086;51.076;13.722;2022-07-05T02:05:51;18.40;94.60
48264;DHT22;34086;51.076;13.722;2022-07-05T02:06:54;18.40;94.80
48264;DHT22;34086;51.076;13.722;2022-07-05T02:07:55;18.30;95.00
48264;DHT22;34086;51.076;13.722;2022-07-05T02:08:56;18.30;95.20
48264;DHT22;34086;51.076;13.722;2022-07-05T02:09:57;18.30;95.40
48264;DHT22;34086;51.076;13.722;2022-07-05T02:10:57;18.20;95.60
48264;DHT22;34086;51.076;13.722;2022-07-05T02:11:58;18.20;95.80
48264;DHT22;34086;51.076;13.722;2022-07-05T02:12:59;18.20;96.00
48264;DHT22;34086;51.076;13.722;2022-07-05T02:14:00;18.20;96.10
48264;DHT22;34086;51.076;13.722;2022-07-05T02:15:06;18.20;96.40
48264;DHT22;34086;51.076;13.722;2022-07-05T02:16:07;18.10;96.50
48264;DHT22;34086;51.076;13.722;2022-07-05T02:17:07;18.10;96.70
48264;DHT22;34086;51.076;13.722;2022-07-05T02:18:09;18.10;96.80
48264;DHT22;34086;51.076;13.722;2022-07-05T02:19:12;18.10;97.00
48264;DHT22;34086;51.076;13.722;2022-07-05T02:20:16;18.10;97.30
48264;DHT22;34086;51.076;13.722;2022-07-05T02:21:17;18.10;97.60
48264;DHT22;34086;51.076;13.722;2022-07-05T02:22:19;18.10;97.90
48264;DHT22;34086;51.076;13.722;2022-07-05T02:23:20;18.10;98.30
48264;DHT22;34086;51.076;13.722;2022-07-05T02:24:21;18.00;98.40
48264;DHT22;34086;51.076;13.722;2022-07-05T02:25:30;18.00;98.60
48264;DHT22;34086;51.076;13.722;2022-07-05T02:26:33;18.00;98.80
48264;DHT22;34086;51.076;13.722;2022-07-05T02:27:34;18.00;98.90
48264;DHT22;34086;51.076;13.722;2022-07-05T02:28:36;17.90;98.90
48264;DHT22;34086;51.076;13.722;2022-07-05T02:29:37;18.00;99.10
48264;DHT22;34086;51.076;13.722;2022-07-05T02:30:37;17.90;99.20
48264;DHT22;34086;51.076;13.722;2022-07-05T02:31:39;17.90;99.50
48264;DHT22;34086;51.076;13.722;2022-07-05T02:32:41;17.90;99.70
48264;DHT22;34086;51.076;13.722;2022-07-05T02:33:42;17.90;99.90
48264;DHT22;34086;51.076;13.722;2022-07-05T02:34:43;17.90;99.90
48264;DHT22;34086;51.076;13.722;2022-07-05T02:35:44;17.90;99.90
48264;DHT22;34086;51.076;13.722;2022-07-05T02:36:45;17.90;99.90
48264;DHT22;34086;51.076;13.722;2022-07-05T02:37:47;17.80;99.90
48264;DHT22;34086;51.076;13.722;2022-07-05T02:38:48;17.80;99.90
48264;DHT22;34086;51.076;13.722;2022-07-05T02:39:49;17.80;99.90
48264;DHT22;34086;51.076;13.722;2022-07-05T02:40:50;17.80;99.90
48264;DHT22;34086;51.076;13.722;2022-07-05T02:41:51;17.80;99.90
48264;DHT22;34086;51.076;13.722;2022-07-05T02:42:52;17.70;99.90
48264;DHT22;34086;51.076;13.722;2022-07-05T02:43:54;17.70;99.90
48264;DHT22;34086;51.076;13.722;2022-07-05T02:45:00;17.70;99.90
48264;DHT22;34086;51.076;13.722;2022-07-05T02:46:01;17.70;99.90
48264;DHT22;34086;51.076;13.722;2022-07-05T02:47:02;17.70;99.90
48264;DHT22;34086;51.076;13.722;2022-07-05T02:48:06;17.70;99.90
48264;DHT22;34086;51.076;13.722;2022-07-05T02:49:08;17.70;99.90
48264;DHT22;34086;51.076;13.722;2022-07-05T02:50:11;17.70;99.90
48264;DHT22;34086;51.076;13.722;2022-07-05T02:51:16;17.70;99.90
48264;DHT22;34086;51.076;13.722;2022-07-05T02:52:19;17.70;99.90
48264;DHT22;34086;51.076;13.722;2022-07-05T02:53:19;17.60;99.90
48264;DHT22;34086;51.076;13.722;2022-07-05T02:54:20;17.60;99.90
48264;DHT22;34086;51.076;13.722;2022-07-05T02:55:21;17.60;99.90
48264;DHT22;34086;51.076;13.722;2022-07-05T02:56:22;17.60;99.90
48264;DHT22;34086;51.076;13.722;2022-07-05T02:57:23;17.60;99.90
48264;DHT22;34086;51.076;13.722;2022-07-05T02:58:24;17.60;99.90
48264;DHT22;34086;51.076;13.722;2022-07-05T02:59:28;17.60;99.90
48264;DHT22;34086;51.076;13.722;2022-07-05T03:00:30;17.60;99.90
48264;DHT22;34086;51.076;13.722;2022-07-05T03:01:31;17.60;99.90
48264;DHT22;34086;51.076;13.722;2022-07-05T03:02:35;17.60;99.90
48264;DHT22;34086;51.076;13.722;2022-07-05T03:03:36;17.60;99.90
48264;DHT22;34086;51.076;13.722;2022-07-05T03:04:37;17.60;99.90
48264;DHT22;34086;51.076;13.722;2022-07-05T03:05:37;17.60;99.90
48264;DHT22;34086;51.076;13.722;2022-07-05T03:06:39;17.60;99.90
48264;DHT22;34086;51.076;13.722;2022-07-05T03:07:39;17.60;99.90
48264;DHT22;34086;51.076;13.722;2022-07-05T03:08:41;17.60;99.90
48264;DHT22;34086;51.076;13.722;2022-07-05T03:09:42;17.60;99.90
48264;DHT22;34086;51.076;13.722;2022-07-05T03:10:43;17.60;99.90
48264;DHT22;34086;51.076;13.722;2022-07-05T03:11:44;17.60;99.90
48264;DHT22;34086;51.076;13.722;2022-07-05T03:12:45;17.60;99.90
48264;DHT22;34086;51.076;13.722;2022-07-05T03:13:48;17.60;99.90
48264;DHT22;34086;51.076;13.722;2022-07-05T03:14:49;17.60;99.90
48264;DHT22;34086;51.076;13.722;2022-07-05T03:15:52;17.60;99.90
48264;DHT22;34086;51.076;13.722;2022-07-05T03:16:56;17.60;99.90
48264;DHT22;34086;51.076;13.722;2022-07-05T03:17:57;17.60;99.90
48264;DHT22;34086;51.076;13.722;2022-07-05T03:19:00;17.60;99.90
48264;DHT22;34086;51.076;13.722;2022-07-05T03:20:01;17.60;99.90
48264;DHT22;34086;51.076;13.722;2022-07-05T03:21:03;17.70;99.90
48264;DHT22;34086;51.076;13.722;2022-07-05T03:22:06;17.60;99.90
48264;DHT22;34086;51.076;13.722;2022-07-05T03:23:09;17.70;99.90
48264;DHT22;34086;51.076;13.722;2022-07-05T03:24:18;17.60;99.90
48264;DHT22;34086;51.076;13.722;2022-07-05T03:25:19;17.60;99.90
48264;DHT22;34086;51.076;13.722;2022-07-05T03:26:20;17.60;99.90
48264;DHT22;34086;51.076;13.722;2022-07-05T03:27:22;17.60;99.90
48264;DHT22;34086;51.076;13.722;2022-07-05T03:28:26;17.60;99.90
48264;DHT22;34086;51.076;13.722;2022-07-05T03:29:30;17.60;99.90
48264;DHT22;34086;51.076;13.722;2022-07-05T03:30:30;17.60;99.90
48264;DHT22;34086;51.076;13.722;2022-07-05T03:31:32;17.60;99.90
48264;DHT22;34086;51.076;13.722;2022-07-05T03:32:35;17.60;99.90
48264;DHT22;34086;51.076;13.722;2022-07-05T03:33:38;17.60;99.90
48264;DHT22;34086;51.076;13.722;2022-07-05T03:34:42;17.70;99.90
48264;DHT22;34086;51.076;13.722;2022-07-05T03:35:44;17.70;99.90
48264;DHT22;34086;51.076;13.722;2022-07-05T03:36:47;17.70;99.90
48264;DHT22;34086;51.076;13.722;2022-07-05T03:37:51;17.70;99.90
48264;DHT22;34086;51.076;13.722;2022-07-05T03:38:53;17.70;99.90
48264;DHT22;34086;51.076;13.722;2022-07-05T03:39:55;17.70;99.90
48264;DHT22;34086;51.076;13.722;2022-07-05T03:40:56;17.70;99.90
48264;DHT22;34086;51.076;13.722;2022-07-05T03:41:59;17.70;99.90
48264;DHT22;34086;51.076;13.722;2022-07-05T03:43:03;17.70;99.90
48264;DHT22;34086;51.076;13.722;2022-07-05T03:44:08;17.70;99.90
48264;DHT22;34086;51.076;13.722;2022-07-05T03:45:09;17.70;99.90
48264;DHT22;34086;51.076;13.722;2022-07-05T03:46:12;17.70;99.90
48264;DHT22;34086;51.076;13.722;2022-07-05T03:47:15;17.80;99.90
48264;DHT22;34086;51.076;13.722;2022-07-05T03:48:19;17.80;99.90
48264;DHT22;34086;51.076;13.722;2022-07-05T03:49:20;17.80;99.90
48264;DHT22;34086;51.076;13.722;2022-07-05T03:50:22;17.80;99.90
48264;DHT22;34086;51.076;13.722;2022-07-05T03:51:23;17.80;99.90
48264;DHT22;34086;51.076;13.722;2022-07-05T03:52:24;17.90;99.90
48264;DHT22;34086;51.076;13.722;2022-07-05T03:53:24;17.90;99.90
48264;DHT22;34086;51.076;13.722;2022-07-05T03:54:25;17.90;99.90
48264;DHT22;34086;51.076;13.722;2022-07-05T03:55:26;17.80;99.90
48264;DHT22;34086;51.076;13.722;2022-07-05T03:56:27;17.80;99.90
48264;DHT22;34086;51.076;13.722;2022-07-05T03:57:33;17.80;99.90
48264;DHT22;34086;51.076;13.722;2022-07-05T03:58:34;17.80;99.90
48264;DHT22;34086;51.076;13.722;2022-07-05T03:59:35;17.80;99.90
48264;DHT22;34086;51.076;13.722;2022-07-05T04:00:36;17.80;99.90
48264;DHT22;34086;51.076;13.722;2022-07-05T04:01:40;17.80;99.90
48264;DHT22;34086;51.076;13.722;2022-07-05T04:02:41;17.80;99.90
48264;DHT22;34086;51.076;13.722;2022-07-05T04:03:45;17.80;99.90
48264;DHT22;34086;51.076;13.722;2022-07-05T04:04:48;17.80;99.90
48264;DHT22;34086;51.076;13.722;2022-07-05T04:05:49;17.80;99.90
48264;DHT22;34086;51.076;13.722;2022-07-05T04:06:50;17.80;99.90
48264;DHT22;34086;51.076;13.722;2022-07-05T04:07:53;17.90;99.90
48264;DHT22;34086;51.076;13.722;2022-07-05T04:08:59;17.90;99.90
48264;DHT22;34086;51.076;13.722;2022-07-05T04:10:00;18.00;99.90
48264;DHT22;34086;51.076;13.722;2022-07-05T04:11:01;18.00;99.90
48264;DHT22;34086;51.076;13.722;2022-07-05T04:12:02;18.10;99.90
48264;DHT22;34086;51.076;13.722;2022-07-05T04:13:05;18.10;99.90
48264;DHT22;34086;51.076;13.722;2022-07-05T04:14:06;18.20;99.90
48264;DHT22;34086;51.076;13.722;2022-07-05T04:15:10;18.30;99.90
48264;DHT22;34086;51.076;13.722;2022-07-05T04:16:11;18.40;99.90
48264;DHT22;34086;51.076;13.722;2022-07-05T04:17:12;18.40;99.90
48264;DHT22;34086;51.076;13.722;2022-07-05T04:18:14;18.40;99.90
48264;DHT22;34086;51.076;13.722;2022-07-05T04:19:16;18.40;99.90
48264;DHT22;34086;51.076;13.722;2022-07-05T04:20:18;18.40;99.90
48264;DHT22;34086;51.076;13.722;2022-07-05T04:21:19;18.40;99.90
48264;DHT22;34086;51.076;13.722;2022-07-05T04:22:21;18.40;99.90
48264;DHT22;34086;51.076;13.722;2022-07-05T04:23:22;18.30;99.90
48264;DHT22;34086;51.076;13.722;2022-07-05T04:24:23;18.30;99.90
48264;DHT22;34086;51.076;13.722;2022-07-05T04:25:24;18.30;99.90
48264;DHT22;34086;51.076;13.722;2022-07-05T04:26:38;18.20;99.90
48264;DHT22;34086;51.076;13.722;2022-07-05T04:27:38;18.20;99.90
48264;DHT22;34086;51.076;13.722;2022-07-05T04:28:39;18.20;99.90
48264;DHT22;34086;51.076;13.722;2022-07-05T04:29:43;18.20;99.90
48264;DHT22;34086;51.076;13.722;2022-07-05T04:30:44;18.20;99.90
48264;DHT22;34086;51.076;13.722;2022-07-05T04:31:46;18.20;99.90
48264;DHT22;34086;51.076;13.722;2022-07-05T04:32:48;18.30;99.90
48264;DHT22;34086;51.076;13.722;2022-07-05T04:33:49;18.30;99.90
48264;DHT22;34086;51.076;13.722;2022-07-05T04:34:54;18.30;99.90
48264;DHT22;34086;51.076;13.722;2022-07-05T04:35:55;18.40;99.90
48264;DHT22;34086;51.076;13.722;2022-07-05T04:36:56;18.50;99.90
48264;DHT22;34086;51.076;13.722;2022-07-05T04:37:57;18.70;99.90
48264;DHT22;34086;51.076;13.722;2022-07-05T04:38:58;18.90;99.90
48264;DHT22;34086;51.076;13.722;2022-07-05T04:40:01;19.20;99.90
48264;DHT22;34086;51.076;13.722;2022-07-05T04:41:02;19.50;99.90
48264;DHT22;34086;51.076;13.722;2022-07-05T04:42:04;19.70;99.90
48264;DHT22;34086;51.076;13.722;2022-07-05T04:43:05;19.80;99.90
48264;DHT22;34086;51.076;13.722;2022-07-05T04:44:06;19.80;99.90
48264;DHT22;34086;51.076;13.722;2022-07-05T04:45:08;19.90;99.70
48264;DHT22;34086;51.076;13.722;2022-07-05T04:46:09;19.80;99.40
48264;DHT22;34086;51.076;13.722;2022-07-05T04:47:10;19.80;99.40
48264;DHT22;34086;51.076;13.722;2022-07-05T04:48:11;19.80;99.40
48264;DHT22;34086;51.076;13.722;2022-07-05T04:49:13;19.70;99.30
48264;DHT22;34086;51.076;13.722;2022-07-05T04:50:15;19.70;99.50
48264;DHT22;34086;51.076;13.722;2022-07-05T04:51:15;19.70;99.30
48264;DHT22;34086;51.076;13.722;2022-07-05T04:52:16;19.90;98.90
48264;DHT22;34086;51.076;13.722;2022-07-05T04:53:17;20.00;98.60
48264;DHT22;34086;51.076;13.722;2022-07-05T04:54:18;20.10;98.40
48264;DHT22;34086;51.076;13.722;2022-07-05T04:55:19;20.20;98.00
48264;DHT22;34086;51.076;13.722;2022-07-05T04:56:20;20.20;97.30
48264;DHT22;34086;51.076;13.722;2022-07-05T04:57:20;20.20;96.70
48264;DHT22;34086;51.076;13.722;2022-07-05T04:58:21;20.20;96.50
48264;DHT22;34086;51.076;13.722;2022-07-05T04:59:22;20.20;95.50
48264;DHT22;34086;51.076;13.722;2022-07-05T05:00:22;20.40;95.50
48264;DHT22;34086;51.076;13.722;2022-07-05T05:01:23;20.60;95.10
48264;DHT22;34086;51.076;13.722;2022-07-05T05:02:24;20.70;94.70
48264;DHT22;34086;51.076;13.722;2022-07-05T05:03:25;20.80;94.10
48264;DHT22;34086;51.076;13.722;2022-07-05T05:04:25;20.80;94.10
48264;DHT22;34086;51.076;13.722;2022-07-05T05:05:26;20.70;94.20
48264;DHT22;34086;51.076;13.722;2022-07-05T05:06:27;20.70;94.30
48264;DHT22;34086;51.076;13.722;2022-07-05T05:07:27;20.80;94.60
48264;DHT22;34086;51.076;13.722;2022-07-05T05:08:28;20.80;94.50
48264;DHT22;34086;51.076;13.722;2022-07-05T05:09:29;21.00;94.40
48264;DHT22;34086;51.076;13.722;2022-07-05T05:10:29;20.90;94.00
48264;DHT22;34086;51.076;13.722;2022-07-05T05:11:30;20.90;93.60
48264;DHT22;34086;51.076;13.722;2022-07-05T05:12:30;20.90;93.50
48264;DHT22;34086;51.076;13.722;2022-07-05T05:13:31;21.00;93.20
48264;DHT22;34086;51.076;13.722;2022-07-05T05:14:32;21.10;93.30
48264;DHT22;34086;51.076;13.722;2022-07-05T05:15:32;21.20;93.20
48264;DHT22;34086;51.076;13.722;2022-07-05T05:16:33;21.30;92.90
48264;DHT22;34086;51.076;13.722;2022-07-05T05:17:43;21.40;92.60
48264;DHT22;34086;51.076;13.722;2022-07-05T05:18:45;21.40;92.10
48264;DHT22;34086;51.076;13.722;2022-07-05T05:19:45;21.40;91.30
48264;DHT22;34086;51.076;13.722;2022-07-05T05:20:46;21.40;91.30
48264;DHT22;34086;51.076;13.722;2022-07-05T05:21:47;21.50;91.10
48264;DHT22;34086;51.076;13.722;2022-07-05T05:22:48;21.60;90.90
48264;DHT22;34086;51.076;13.722;2022-07-05T05:23:49;21.70;90.60
48264;DHT22;34086;51.076;13.722;2022-07-05T05:24:49;21.80;90.00
48264;DHT22;34086;51.076;13.722;2022-07-05T05:25:50;21.90;89.50
48264;DHT22;34086;51.076;13.722;2022-07-05T05:26:51;22.10;88.70
48264;DHT22;34086;51.076;13.722;2022-07-05T05:27:51;22.20;87.90
48264;DHT22;34086;51.076;13.722;2022-07-05T05:28:52;22.30;87.40
48264;DHT22;34086;51.076;13.722;2022-07-05T05:29:53;22.50;85.90
48264;DHT22;34086;51.076;13.722;2022-07-05T05:30:54;22.70;83.40
48264;DHT22;34086;51.076;13.722;2022-07-05T05:31:54;22.70;82.90
48264;DHT22;34086;51.076;13.722;2022-07-05T05:32:55;22.80;82.00
48264;DHT22;34086;51.076;13.722;2022-07-05T05:33:56;23.00;81.20
48264;DHT22;34086;51.076;13.722;2022-07-05T05:34:56;23.30;79.70
48264;DHT22;34086;51.076;13.722;2022-07-05T05:35:57;23.60;78.30
48264;DHT22;34086;51.076;13.722;2022-07-05T05:36:58;23.90;76.50
48264;DHT22;34086;51.076;13.722;2022-07-05T05:37:58;24.10;74.40
48264;DHT22;34086;51.076;13.722;2022-07-05T05:38:59;24.30;72.80
48264;DHT22;34086;51.076;13.722;2022-07-05T05:39:59;24.40;72.30
48264;DHT22;34086;51.076;13.722;2022-07-05T05:41:00;24.60;71.30
48264;DHT22;34086;51.076;13.722;2022-07-05T05:42:01;24.70;70.50
48264;DHT22;34086;51.076;13.722;2022-07-05T05:43:01;24.90;70.10
48264;DHT22;34086;51.076;13.722;2022-07-05T05:44:03;24.90;69.00
48264;DHT22;34086;51.076;13.722;2022-07-05T05:45:04;24.80;68.80
48264;DHT22;34086;51.076;13.722;2022-07-05T05:46:04;24.90;68.30
48264;DHT22;34086;51.076;13.722;2022-07-05T05:47:05;25.20;67.60
48264;DHT22;34086;51.076;13.722;2022-07-05T05:48:06;25.40;65.10
48264;DHT22;34086;51.076;13.722;2022-07-05T05:49:06;25.40;65.10
48264;DHT22;34086;51.076;13.722;2022-07-05T05:50:07;25.50;63.60
48264;DHT22;34086;51.076;13.722;2022-07-05T05:51:08;25.60;63.40
48264;DHT22;34086;51.076;13.722;2022-07-05T05:52:09;25.90;62.40
48264;DHT22;34086;51.076;13.722;2022-07-05T05:53:13;26.00;62.00
48264;DHT22;34086;51.076;13.722;2022-07-05T05:54:14;26.00;61.70
48264;DHT22;34086;51.076;13.722;2022-07-05T05:55:14;26.10;61.30
48264;DHT22;34086;51.076;13.722;2022-07-05T05:56:15;26.00;60.60
48264;DHT22;34086;51.076;13.722;2022-07-05T05:57:16;26.10;60.90
48264;DHT22;34086;51.076;13.722;2022-07-05T05:59:18;26.60;59.60
48264;DHT22;34086;51.076;13.722;2022-07-05T06:00:20;26.60;59.00
48264;DHT22;34086;51.076;13.722;2022-07-05T06:01:21;26.70;58.50
48264;DHT22;34086;51.076;13.722;2022-07-05T06:02:21;26.90;58.40
48264;DHT22;34086;51.076;13.722;2022-07-05T06:03:25;26.90;58.20
48264;DHT22;34086;51.076;13.722;2022-07-05T06:04:26;26.90;58.30
48264;DHT22;34086;51.076;13.722;2022-07-05T06:05:26;26.80;57.90
48264;DHT22;34086;51.076;13.722;2022-07-05T06:06:27;27.00;57.50
48264;DHT22;34086;51.076;13.722;2022-07-05T06:07:27;26.90;56.60
48264;DHT22;34086;51.076;13.722;2022-07-05T06:08:28;26.80;56.80
48264;DHT22;34086;51.076;13.722;2022-07-05T06:09:29;26.80;56.60
48264;DHT22;34086;51.076;13.722;2022-07-05T06:10:31;26.80;56.40
48264;DHT22;34086;51.076;13.722;2022-07-05T06:11:32;26.90;56.30
48264;DHT22;34086;51.076;13.722;2022-07-05T06:12:33;27.00;56.40
48264;DHT22;34086;51.076;13.722;2022-07-05T06:13:34;26.80;56.40
48264;DHT22;34086;51.076;13.722;2022-07-05T06:14:34;26.80;56.50
48264;DHT22;34086;51.076;13.722;2022-07-05T06:15:36;26.60;57.10
48264;DHT22;34086;51.076;13.722;2022-07-05T06:16:36;26.60;56.90
48264;DHT22;34086;51.076;13.722;2022-07-05T06:17:38;26.60;56.80
48264;DHT22;34086;51.076;13.722;2022-07-05T06:18:39;26.80;56.50
48264;DHT22;34086;51.076;13.722;2022-07-05T06:19:39;26.70;56.30
48264;DHT22;34086;51.076;13.722;2022-07-05T06:20:40;26.60;56.50
48264;DHT22;34086;51.076;13.722;2022-07-05T06:21:41;26.80;56.40
48264;DHT22;34086;51.076;13.722;2022-07-05T06:22:42;26.70;56.60
48264;DHT22;34086;51.076;13.722;2022-07-05T06:23:42;26.70;57.10
48264;DHT22;34086;51.076;13.722;2022-07-05T06:24:43;26.70;56.80